sensor_id;sensor_type;location;lat;lon;timestamp;P1;durP1;ratioP1;P2;durP2;ratioP2
58528;SDS011;44322;52.968;5.816;2023-09-19T00:00:21;9.18;;;2.50;;
58528;SDS011;44322;52.968;5.816;2023-09-19T00:02:52;8.07;;;2.22;;
58528;SDS011;44322;52.968;5.816;2023-09-19T00:05:25;9.52;;;2.50;;
58528;SDS011;44322;52.968;5.816;2023-09-19T00:07:53;8.23;;;2.25;;
58528;SDS011;44322;52.968;5.816;2023-09-19T00:10:21;16.73;;;3.13;;
58528;SDS011;44322;52.968;5.816;2023-09-19T00:12:50;11.65;;;2.65;;
58528;SDS011;44322;52.968;5.816;2023-09-19T00:15:26;8.40;;;2.30;;
58528;SDS011;44322;52.968;5.816;2023-09-19T00:17:55;7.07;;;2.17;;
58528;SDS011;44322;52.968;5.816;2023-09-19T00:20:21;7.95;;;1.98;;
58528;SDS011;44322;52.968;5.816;2023-09-19T00:22:50;10.80;;;2.10;;
58528;SDS011;44322;52.968;5.816;2023-09-19T00:25:20;6.35;;;1.90;;
58528;SDS011;44322;52.968;5.816;2023-09-19T00:27:48;8.18;;;2.40;;
58528;SDS011;44322;52.968;5.816;2023-09-19T00:30:16;7.90;;;2.78;;
58528;SDS011;44322;52.968;5.816;2023-09-19T00:35:37;9.13;;;2.33;;
58528;SDS011;44322;52.968;5.816;2023-09-19T00:38:03;10.43;;;2.13;;
58528;SDS011;44322;52.968;5.816;2023-09-19T00:40:29;8.52;;;2.50;;
58528;SDS011;44322;52.968;5.816;2023-09-19T00:42:58;7.72;;;1.83;;
58528;SDS011;44322;52.968;5.816;2023-09-19T00:45:25;6.68;;;2.17;;
58528;SDS011;44322;52.968;5.816;2023-09-19T00:47:51;7.90;;;2.38;;
58528;SDS011;44322;52.968;5.816;2023-09-19T00:50:18;7.07;;;1.95;;
58528;SDS011;44322;52.968;5.816;2023-09-19T00:55:15;7.18;;;2.10;;
58528;SDS011;44322;52.968;5.816;2023-09-19T00:57:45;10.23;;;2.90;;
58528;SDS011;44322;52.968;5.816;2023-09-19T01:00:11;6.78;;;1.80;;
58528;SDS011;44322;52.968;5.816;2023-09-19T01:02:43;7.18;;;2.05;;
58528;SDS011;44322;52.968;5.816;2023-09-19T01:05:10;4.35;;;1.60;;
58528;SDS011;44322;52.968;5.816;2023-09-19T01:07:36;8.30;;;2.13;;
58528;SDS011;44322;52.968;5.816;2023-09-19T01:10:06;7.38;;;2.00;;
58528;SDS011;44322;52.968;5.816;2023-09-19T01:15:04;8.80;;;1.80;;
58528;SDS011;44322;52.968;5.816;2023-09-19T01:17:43;9.45;;;1.80;;
58528;SDS011;44322;52.968;5.816;2023-09-19T01:23:58;9.52;;;2.40;;
58528;SDS011;44322;52.968;5.816;2023-09-19T01:26:50;7.45;;;2.15;;
58528;SDS011;44322;52.968;5.816;2023-09-19T01:29:39;9.98;;;2.22;;
58528;SDS011;44322;52.968;5.816;2023-09-19T01:32:10;8.18;;;1.88;;
58528;SDS011;44322;52.968;5.816;2023-09-19T01:37:12;9.07;;;2.10;;
58528;SDS011;44322;52.968;5.816;2023-09-19T01:39:40;6.40;;;1.95;;
58528;SDS011;44322;52.968;5.816;2023-09-19T01:42:15;8.82;;;2.20;;
58528;SDS011;44322;52.968;5.816;2023-09-19T01:47:17;5.25;;;1.90;;
58528;SDS011;44322;52.968;5.816;2023-09-19T01:49:59;7.38;;;2.47;;
58528;SDS011;44322;52.968;5.816;2023-09-19T01:52:33;7.35;;;1.92;;
58528;SDS011;44322;52.968;5.816;2023-09-19T01:55:08;9.05;;;2.05;;
58528;SDS011;44322;52.968;5.816;2023-09-19T01:57:41;8.15;;;1.90;;
58528;SDS011;44322;52.968;5.816;2023-09-19T02:00:09;8.88;;;2.20;;
58528;SDS011;44322;52.968;5.816;2023-09-19T02:02:42;7.63;;;2.25;;
58528;SDS011;44322;52.968;5.816;2023-09-19T02:05:10;8.50;;;1.80;;
58528;SDS011;44322;52.968;5.816;2023-09-19T02:07:35;9.25;;;2.28;;
58528;SDS011;44322;52.968;5.816;2023-09-19T02:10:04;9.23;;;2.05;;
58528;SDS011;44322;52.968;5.816;2023-09-19T02:15:02;7.63;;;1.80;;
58528;SDS011;44322;52.968;5.816;2023-09-19T02:17:28;7.28;;;1.90;;
58528;SDS011;44322;52.968;5.816;2023-09-19T02:19:56;6.05;;;1.73;;
58528;SDS011;44322;52.968;5.816;2023-09-19T02:22:22;8.45;;;1.80;;
58528;SDS011;44322;52.968;5.816;2023-09-19T02:24:48;7.25;;;1.75;;
58528;SDS011;44322;52.968;5.816;2023-09-19T02:27:14;8.25;;;2.00;;
58528;SDS011;44322;52.968;5.816;2023-09-19T02:29:41;10.15;;;2.30;;
58528;SDS011;44322;52.968;5.816;2023-09-19T02:32:08;6.07;;;1.80;;
58528;SDS011;44322;52.968;5.816;2023-09-19T02:34:35;7.43;;;2.20;;
58528;SDS011;44322;52.968;5.816;2023-09-19T02:37:07;6.15;;;1.83;;
58528;SDS011;44322;52.968;5.816;2023-09-19T02:39:36;10.88;;;2.10;;
58528;SDS011;44322;52.968;5.816;2023-09-19T02:42:02;5.57;;;1.77;;
58528;SDS011;44322;52.968;5.816;2023-09-19T02:44:29;7.90;;;1.80;;
58528;SDS011;44322;52.968;5.816;2023-09-19T02:46:57;7.45;;;1.70;;
58528;SDS011;44322;52.968;5.816;2023-09-19T02:49:24;8.68;;;2.00;;
58528;SDS011;44322;52.968;5.816;2023-09-19T02:51:49;7.00;;;1.85;;
58528;SDS011;44322;52.968;5.816;2023-09-19T02:54:16;8.07;;;1.98;;
58528;SDS011;44322;52.968;5.816;2023-09-19T02:56:42;6.82;;;1.80;;
58528;SDS011;44322;52.968;5.816;2023-09-19T02:59:08;7.32;;;1.67;;
58528;SDS011;44322;52.968;5.816;2023-09-19T03:01:36;8.15;;;2.20;;
58528;SDS011;44322;52.968;5.816;2023-09-19T03:04:03;8.13;;;1.73;;
58528;SDS011;44322;52.968;5.816;2023-09-19T03:06:34;10.07;;;2.28;;
58528;SDS011;44322;52.968;5.816;2023-09-19T03:09:00;8.68;;;2.38;;
58528;SDS011;44322;52.968;5.816;2023-09-19T03:11:26;7.57;;;2.03;;
58528;SDS011;44322;52.968;5.816;2023-09-19T03:13:56;9.70;;;2.25;;
58528;SDS011;44322;52.968;5.816;2023-09-19T03:16:22;6.95;;;2.00;;
58528;SDS011;44322;52.968;5.816;2023-09-19T03:18:51;6.97;;;1.83;;
58528;SDS011;44322;52.968;5.816;2023-09-19T03:21:17;8.25;;;1.98;;
58528;SDS011;44322;52.968;5.816;2023-09-19T03:23:44;8.88;;;3.03;;
58528;SDS011;44322;52.968;5.816;2023-09-19T03:26:11;8.15;;;1.67;;
58528;SDS011;44322;52.968;5.816;2023-09-19T03:28:38;5.07;;;1.67;;
58528;SDS011;44322;52.968;5.816;2023-09-19T03:31:05;6.80;;;1.65;;
58528;SDS011;44322;52.968;5.816;2023-09-19T03:33:34;7.25;;;1.92;;
58528;SDS011;44322;52.968;5.816;2023-09-19T03:36:01;13.13;;;2.60;;
58528;SDS011;44322;52.968;5.816;2023-09-19T03:38:30;9.73;;;2.22;;
58528;SDS011;44322;52.968;5.816;2023-09-19T03:40:57;9.93;;;1.98;;
58528;SDS011;44322;52.968;5.816;2023-09-19T03:43:22;7.60;;;1.95;;
58528;SDS011;44322;52.968;5.816;2023-09-19T03:45:48;7.47;;;1.90;;
58528;SDS011;44322;52.968;5.816;2023-09-19T03:48:14;8.32;;;2.17;;
58528;SDS011;44322;52.968;5.816;2023-09-19T03:50:40;7.20;;;1.67;;
58528;SDS011;44322;52.968;5.816;2023-09-19T03:53:06;9.40;;;2.05;;
58528;SDS011;44322;52.968;5.816;2023-09-19T03:55:32;7.70;;;1.83;;
58528;SDS011;44322;52.968;5.816;2023-09-19T03:58:04;6.50;;;2.05;;
58528;SDS011;44322;52.968;5.816;2023-09-19T04:00:31;7.15;;;1.92;;
58528;SDS011;44322;52.968;5.816;2023-09-19T04:02:58;10.03;;;1.97;;
58528;SDS011;44322;52.968;5.816;2023-09-19T04:05:24;7.30;;;2.10;;
58528;SDS011;44322;52.968;5.816;2023-09-19T04:07:49;5.82;;;1.90;;
58528;SDS011;44322;52.968;5.816;2023-09-19T04:10:15;7.18;;;2.22;;
58528;SDS011;44322;52.968;5.816;2023-09-19T04:12:51;6.78;;;1.80;;
58528;SDS011;44322;52.968;5.816;2023-09-19T04:15:18;7.13;;;1.95;;
58528;SDS011;44322;52.968;5.816;2023-09-19T04:17:44;9.40;;;2.22;;
58528;SDS011;44322;52.968;5.816;2023-09-19T04:20:10;11.90;;;2.70;;
58528;SDS011;44322;52.968;5.816;2023-09-19T04:22:38;7.65;;;2.00;;
58528;SDS011;44322;52.968;5.816;2023-09-19T04:25:05;10.18;;;2.42;;
58528;SDS011;44322;52.968;5.816;2023-09-19T04:27:32;8.68;;;2.25;;
58528;SDS011;44322;52.968;5.816;2023-09-19T04:29:58;9.48;;;2.10;;
58528;SDS011;44322;52.968;5.816;2023-09-19T04:32:28;7.45;;;2.13;;
58528;SDS011;44322;52.968;5.816;2023-09-19T04:34:53;7.65;;;2.25;;
58528;SDS011;44322;52.968;5.816;2023-09-19T04:37:19;9.57;;;3.22;;
58528;SDS011;44322;52.968;5.816;2023-09-19T04:39:46;10.30;;;2.30;;
58528;SDS011;44322;52.968;5.816;2023-09-19T04:42:12;11.40;;;2.20;;
58528;SDS011;44322;52.968;5.816;2023-09-19T04:44:39;10.60;;;2.40;;
58528;SDS011;44322;52.968;5.816;2023-09-19T04:47:08;10.95;;;2.40;;
58528;SDS011;44322;52.968;5.816;2023-09-19T04:49:39;9.32;;;2.13;;
58528;SDS011;44322;52.968;5.816;2023-09-19T04:52:05;9.88;;;2.65;;
58528;SDS011;44322;52.968;5.816;2023-09-19T04:54:31;8.45;;;2.25;;
58528;SDS011;44322;52.968;5.816;2023-09-19T04:56:59;8.80;;;3.10;;
58528;SDS011;44322;52.968;5.816;2023-09-19T04:59:25;7.65;;;1.90;;
58528;SDS011;44322;52.968;5.816;2023-09-19T05:01:51;8.45;;;2.28;;
58528;SDS011;44322;52.968;5.816;2023-09-19T05:04:16;10.32;;;2.55;;
58528;SDS011;44322;52.968;5.816;2023-09-19T05:06:42;9.75;;;2.30;;
58528;SDS011;44322;52.968;5.816;2023-09-19T05:09:08;8.95;;;2.53;;
58528;SDS011;44322;52.968;5.816;2023-09-19T05:11:33;11.10;;;2.45;;
58528;SDS011;44322;52.968;5.816;2023-09-19T05:13:59;11.02;;;2.30;;
58528;SDS011;44322;52.968;5.816;2023-09-19T05:16:29;9.50;;;2.40;;
58528;SDS011;44322;52.968;5.816;2023-09-19T05:18:57;11.57;;;2.60;;
58528;SDS011;44322;52.968;5.816;2023-09-19T05:21:25;9.52;;;2.22;;
58528;SDS011;44322;52.968;5.816;2023-09-19T05:25:15;9.18;;;2.17;;
58528;SDS011;44322;52.968;5.816;2023-09-19T05:28:17;10.07;;;2.38;;
58528;SDS011;44322;52.968;5.816;2023-09-19T05:36:42;9.88;;;2.63;;
58528;SDS011;44322;52.968;5.816;2023-09-19T05:39:08;9.85;;;2.75;;
58528;SDS011;44322;52.968;5.816;2023-09-19T05:41:37;9.70;;;2.40;;
58528;SDS011;44322;52.968;5.816;2023-09-19T05:46:32;10.57;;;2.22;;
58528;SDS011;44322;52.968;5.816;2023-09-19T05:48:58;8.07;;;2.33;;
58528;SDS011;44322;52.968;5.816;2023-09-19T05:51:24;11.57;;;1.90;;
58528;SDS011;44322;52.968;5.816;2023-09-19T05:53:53;9.60;;;2.35;;
58528;SDS011;44322;52.968;5.816;2023-09-19T05:56:20;7.00;;;2.25;;
58528;SDS011;44322;52.968;5.816;2023-09-19T05:58:46;10.32;;;2.47;;
58528;SDS011;44322;52.968;5.816;2023-09-19T06:01:12;8.57;;;2.08;;
58528;SDS011;44322;52.968;5.816;2023-09-19T06:03:38;9.23;;;1.75;;
58528;SDS011;44322;52.968;5.816;2023-09-19T06:06:04;8.60;;;1.90;;
58528;SDS011;44322;52.968;5.816;2023-09-19T06:08:32;8.00;;;2.17;;
58528;SDS011;44322;52.968;5.816;2023-09-19T06:10:59;9.68;;;2.08;;
58528;SDS011;44322;52.968;5.816;2023-09-19T06:13:25;12.88;;;2.80;;
58528;SDS011;44322;52.968;5.816;2023-09-19T06:15:55;12.75;;;2.28;;
58528;SDS011;44322;52.968;5.816;2023-09-19T06:18:28;8.18;;;2.20;;
58528;SDS011;44322;52.968;5.816;2023-09-19T06:20:59;7.63;;;2.22;;
58528;SDS011;44322;52.968;5.816;2023-09-19T06:23:25;8.60;;;2.17;;
58528;SDS011;44322;52.968;5.816;2023-09-19T06:25:56;9.00;;;1.80;;
58528;SDS011;44322;52.968;5.816;2023-09-19T06:28:23;8.82;;;2.00;;
58528;SDS011;44322;52.968;5.816;2023-09-19T06:33:16;9.05;;;2.20;;
58528;SDS011;44322;52.968;5.816;2023-09-19T06:35:43;7.40;;;2.00;;
58528;SDS011;44322;52.968;5.816;2023-09-19T06:38:12;9.05;;;2.55;;
58528;SDS011;44322;52.968;5.816;2023-09-19T06:40:38;11.95;;;2.42;;
58528;SDS011;44322;52.968;5.816;2023-09-19T06:43:06;10.20;;;2.17;;
58528;SDS011;44322;52.968;5.816;2023-09-19T06:49:50;8.02;;;1.85;;
58528;SDS011;44322;52.968;5.816;2023-09-19T06:52:17;10.20;;;2.08;;
58528;SDS011;44322;52.968;5.816;2023-09-19T06:54:47;8.05;;;2.22;;
58528;SDS011;44322;52.968;5.816;2023-09-19T06:57:16;9.63;;;2.05;;
58528;SDS011;44322;52.968;5.816;2023-09-19T06:59:41;7.60;;;2.05;;
58528;SDS011;44322;52.968;5.816;2023-09-19T07:02:07;9.45;;;2.25;;
58528;SDS011;44322;52.968;5.816;2023-09-19T07:04:33;9.10;;;2.45;;
58528;SDS011;44322;52.968;5.816;2023-09-19T07:06:59;9.73;;;2.17;;
58528;SDS011;44322;52.968;5.816;2023-09-19T07:09:25;9.55;;;2.55;;
58528;SDS011;44322;52.968;5.816;2023-09-19T07:11:52;10.77;;;2.28;;
58528;SDS011;44322;52.968;5.816;2023-09-19T07:14:19;9.57;;;2.17;;
58528;SDS011;44322;52.968;5.816;2023-09-19T07:16:45;7.85;;;1.90;;
58528;SDS011;44322;52.968;5.816;2023-09-19T07:19:13;8.07;;;1.83;;
58528;SDS011;44322;52.968;5.816;2023-09-19T07:21:40;7.65;;;2.05;;
58528;SDS011;44322;52.968;5.816;2023-09-19T07:24:07;8.07;;;2.10;;
58528;SDS011;44322;52.968;5.816;2023-09-19T07:26:33;8.95;;;2.20;;
58528;SDS011;44322;52.968;5.816;2023-09-19T07:28:59;7.18;;;1.80;;
58528;SDS011;44322;52.968;5.816;2023-09-19T07:31:32;8.13;;;2.03;;
58528;SDS011;44322;52.968;5.816;2023-09-19T07:34:00;8.90;;;2.17;;
58528;SDS011;44322;52.968;5.816;2023-09-19T07:36:25;10.40;;;2.53;;
58528;SDS011;44322;52.968;5.816;2023-09-19T07:38:51;10.05;;;2.60;;
58528;SDS011;44322;52.968;5.816;2023-09-19T07:41:25;10.18;;;2.80;;
58528;SDS011;44322;52.968;5.816;2023-09-19T07:44:07;8.82;;;2.38;;
58528;SDS011;44322;52.968;5.816;2023-09-19T07:52:40;8.32;;;2.53;;
58528;SDS011;44322;52.968;5.816;2023-09-19T07:55:10;9.88;;;3.10;;
58528;SDS011;44322;52.968;5.816;2023-09-19T08:00:42;12.07;;;2.65;;
58528;SDS011;44322;52.968;5.816;2023-09-19T08:03:58;11.93;;;2.67;;
58528;SDS011;44322;52.968;5.816;2023-09-19T08:06:40;10.02;;;2.83;;
58528;SDS011;44322;52.968;5.816;2023-09-19T08:10:14;11.38;;;2.38;;
58528;SDS011;44322;52.968;5.816;2023-09-19T08:18:08;11.90;;;2.58;;
58528;SDS011;44322;52.968;5.816;2023-09-19T08:26:53;12.07;;;2.70;;
58528;SDS011;44322;52.968;5.816;2023-09-19T08:41:09;10.50;;;2.70;;
58528;SDS011;44322;52.968;5.816;2023-09-19T08:44:06;14.85;;;3.03;;
58528;SDS011;44322;52.968;5.816;2023-09-19T08:47:10;11.25;;;2.90;;
58528;SDS011;44322;52.968;5.816;2023-09-19T08:50:30;12.60;;;2.97;;
58528;SDS011;44322;52.968;5.816;2023-09-19T08:55:52;9.48;;;2.67;;
58528;SDS011;44322;52.968;5.816;2023-09-19T08:58:21;13.57;;;3.17;;
58528;SDS011;44322;52.968;5.816;2023-09-19T09:00:48;10.43;;;2.20;;
58528;SDS011;44322;52.968;5.816;2023-09-19T09:03:14;9.33;;;3.10;;
58528;SDS011;44322;52.968;5.816;2023-09-19T09:08:34;12.68;;;2.45;;
58528;SDS011;44322;52.968;5.816;2023-09-19T09:11:03;8.45;;;2.67;;
58528;SDS011;44322;52.968;5.816;2023-09-19T09:13:51;9.57;;;3.13;;
58528;SDS011;44322;52.968;5.816;2023-09-19T09:16:27;8.85;;;2.60;;
58528;SDS011;44322;52.968;5.816;2023-09-19T09:19:34;12.63;;;2.92;;
58528;SDS011;44322;52.968;5.816;2023-09-19T09:22:12;9.35;;;2.78;;
58528;SDS011;44322;52.968;5.816;2023-09-19T09:28:00;11.57;;;2.83;;
58528;SDS011;44322;52.968;5.816;2023-09-19T09:33:18;14.35;;;3.25;;
58528;SDS011;44322;52.968;5.816;2023-09-19T09:38:51;12.05;;;3.50;;
58528;SDS011;44322;52.968;5.816;2023-09-19T09:44:38;13.05;;;3.10;;
58528;SDS011;44322;52.968;5.816;2023-09-19T09:47:13;9.55;;;2.83;;
58528;SDS011;44322;52.968;5.816;2023-09-19T09:50:05;16.42;;;3.42;;
58528;SDS011;44322;52.968;5.816;2023-09-19T09:52:45;13.77;;;3.20;;
58528;SDS011;44322;52.968;5.816;2023-09-19T09:55:12;14.77;;;3.03;;
58528;SDS011;44322;52.968;5.816;2023-09-19T09:57:38;9.95;;;2.88;;
58528;SDS011;44322;52.968;5.816;2023-09-19T10:05:31;12.88;;;3.50;;
58528;SDS011;44322;52.968;5.816;2023-09-19T10:08:12;11.63;;;3.25;;
58528;SDS011;44322;52.968;5.816;2023-09-19T10:26:07;11.20;;;3.15;;
58528;SDS011;44322;52.968;5.816;2023-09-19T10:29:10;13.68;;;3.50;;
58528;SDS011;44322;52.968;5.816;2023-09-19T10:31:57;12.65;;;3.97;;
58528;SDS011;44322;52.968;5.816;2023-09-19T10:34:30;14.88;;;4.40;;
58528;SDS011;44322;52.968;5.816;2023-09-19T10:36:56;12.40;;;3.45;;
58528;SDS011;44322;52.968;5.816;2023-09-19T10:39:21;14.50;;;3.85;;
58528;SDS011;44322;52.968;5.816;2023-09-19T10:41:52;13.45;;;3.83;;
58528;SDS011;44322;52.968;5.816;2023-09-19T10:44:25;11.43;;;3.60;;
58528;SDS011;44322;52.968;5.816;2023-09-19T10:46:53;11.88;;;3.65;;
58528;SDS011;44322;52.968;5.816;2023-09-19T10:49:20;13.38;;;3.80;;
58528;SDS011;44322;52.968;5.816;2023-09-19T10:51:47;10.85;;;3.53;;
58528;SDS011;44322;52.968;5.816;2023-09-19T10:54:18;12.43;;;3.65;;
58528;SDS011;44322;52.968;5.816;2023-09-19T11:00:55;9.90;;;3.35;;
58528;SDS011;44322;52.968;5.816;2023-09-19T11:03:30;12.23;;;4.38;;
58528;SDS011;44322;52.968;5.816;2023-09-19T11:09:52;10.57;;;3.78;;
58528;SDS011;44322;52.968;5.816;2023-09-19T11:14:51;12.70;;;3.97;;
58528;SDS011;44322;52.968;5.816;2023-09-19T11:17:32;14.20;;;3.63;;
58528;SDS011;44322;52.968;5.816;2023-09-19T11:42:49;15.60;;;3.28;;
58528;SDS011;44322;52.968;5.816;2023-09-19T11:48:15;11.02;;;2.90;;
58528;SDS011;44322;52.968;5.816;2023-09-19T11:50:41;10.73;;;3.08;;
58528;SDS011;44322;52.968;5.816;2023-09-19T11:53:12;10.38;;;2.53;;
58528;SDS011;44322;52.968;5.816;2023-09-19T11:55:39;11.13;;;2.83;;
58528;SDS011;44322;52.968;5.816;2023-09-19T11:58:08;9.23;;;2.70;;
58528;SDS011;44322;52.968;5.816;2023-09-19T12:00:35;9.77;;;2.85;;
58528;SDS011;44322;52.968;5.816;2023-09-19T12:05:58;8.23;;;2.38;;
58528;SDS011;44322;52.968;5.816;2023-09-19T12:09:26;8.20;;;2.73;;
58528;SDS011;44322;52.968;5.816;2023-09-19T12:11:52;11.82;;;3.20;;
58528;SDS011;44322;52.968;5.816;2023-09-19T12:14:25;9.55;;;2.20;;
58528;SDS011;44322;52.968;5.816;2023-09-19T12:16:56;8.40;;;2.10;;
58528;SDS011;44322;52.968;5.816;2023-09-19T12:19:24;8.43;;;2.40;;
58528;SDS011;44322;52.968;5.816;2023-09-19T12:21:57;8.95;;;2.30;;
58528;SDS011;44322;52.968;5.816;2023-09-19T12:24:32;10.40;;;2.63;;
58528;SDS011;44322;52.968;5.816;2023-09-19T12:27:13;9.95;;;2.30;;
58528;SDS011;44322;52.968;5.816;2023-09-19T12:29:47;11.68;;;3.47;;
58528;SDS011;44322;52.968;5.816;2023-09-19T12:32:16;7.68;;;2.17;;
58528;SDS011;44322;52.968;5.816;2023-09-19T12:34:59;7.20;;;2.63;;
58528;SDS011;44322;52.968;5.816;2023-09-19T12:37:56;8.20;;;2.03;;
58528;SDS011;44322;52.968;5.816;2023-09-19T12:40:22;6.80;;;2.00;;
58528;SDS011;44322;52.968;5.816;2023-09-19T12:42:56;9.40;;;2.67;;
58528;SDS011;44322;52.968;5.816;2023-09-19T12:45:23;8.20;;;2.55;;
58528;SDS011;44322;52.968;5.816;2023-09-19T12:53:36;9.88;;;2.17;;
58528;SDS011;44322;52.968;5.816;2023-09-19T12:56:14;11.45;;;2.85;;
58528;SDS011;44322;52.968;5.816;2023-09-19T12:58:53;7.10;;;2.25;;
58528;SDS011;44322;52.968;5.816;2023-09-19T13:01:21;6.15;;;1.98;;
58528;SDS011;44322;52.968;5.816;2023-09-19T13:06:53;6.45;;;2.20;;
58528;SDS011;44322;52.968;5.816;2023-09-19T13:09:20;7.63;;;2.70;;
58528;SDS011;44322;52.968;5.816;2023-09-19T13:11:48;10.00;;;2.08;;
58528;SDS011;44322;52.968;5.816;2023-09-19T13:20:40;6.07;;;2.05;;
58528;SDS011;44322;52.968;5.816;2023-09-19T13:24:46;3.95;;;1.65;;
58528;SDS011;44322;52.968;5.816;2023-09-19T13:30:54;5.80;;;2.10;;
58528;SDS011;44322;52.968;5.816;2023-09-19T13:39:10;7.03;;;2.10;;
58528;SDS011;44322;52.968;5.816;2023-09-19T13:42:02;5.35;;;2.30;;
58528;SDS011;44322;52.968;5.816;2023-09-19T13:44:28;10.27;;;3.03;;
58528;SDS011;44322;52.968;5.816;2023-09-19T13:47:05;8.60;;;2.30;;
58528;SDS011;44322;52.968;5.816;2023-09-19T13:49:37;4.93;;;2.17;;
58528;SDS011;44322;52.968;5.816;2023-09-19T13:52:04;5.88;;;2.58;;
58528;SDS011;44322;52.968;5.816;2023-09-19T13:54:40;5.00;;;2.00;;
58528;SDS011;44322;52.968;5.816;2023-09-19T13:57:24;8.35;;;2.47;;
58528;SDS011;44322;52.968;5.816;2023-09-19T13:59:51;8.25;;;2.58;;
58528;SDS011;44322;52.968;5.816;2023-09-19T14:02:17;7.20;;;2.33;;
58528;SDS011;44322;52.968;5.816;2023-09-19T14:04:57;8.90;;;2.35;;
58528;SDS011;44322;52.968;5.816;2023-09-19T14:07:23;6.18;;;2.47;;
58528;SDS011;44322;52.968;5.816;2023-09-19T14:09:49;8.27;;;2.95;;
58528;SDS011;44322;52.968;5.816;2023-09-19T14:12:14;6.90;;;2.70;;
58528;SDS011;44322;52.968;5.816;2023-09-19T14:14:46;8.82;;;2.80;;
58528;SDS011;44322;52.968;5.816;2023-09-19T14:18:19;9.07;;;3.17;;
58528;SDS011;44322;52.968;5.816;2023-09-19T14:21:10;7.03;;;2.97;;
58528;SDS011;44322;52.968;5.816;2023-09-19T14:23:36;8.90;;;2.55;;
58528;SDS011;44322;52.968;5.816;2023-09-19T14:29:24;5.10;;;2.10;;
58528;SDS011;44322;52.968;5.816;2023-09-19T14:31:53;6.05;;;2.20;;
58528;SDS011;44322;52.968;5.816;2023-09-19T14:34:23;7.57;;;2.60;;
58528;SDS011;44322;52.968;5.816;2023-09-19T14:36:49;5.80;;;2.35;;
58528;SDS011;44322;52.968;5.816;2023-09-19T14:39:26;7.55;;;2.65;;
58528;SDS011;44322;52.968;5.816;2023-09-19T14:41:56;8.70;;;2.70;;
58528;SDS011;44322;52.968;5.816;2023-09-19T14:44:22;8.23;;;2.42;;
58528;SDS011;44322;52.968;5.816;2023-09-19T14:46:48;7.53;;;2.70;;
58528;SDS011;44322;52.968;5.816;2023-09-19T14:49:14;8.27;;;2.80;;
58528;SDS011;44322;52.968;5.816;2023-09-19T14:51:53;10.27;;;2.70;;
58528;SDS011;44322;52.968;5.816;2023-09-19T14:54:19;7.63;;;2.30;;
58528;SDS011;44322;52.968;5.816;2023-09-19T14:56:44;9.32;;;2.63;;
58528;SDS011;44322;52.968;5.816;2023-09-19T14:59:10;7.97;;;2.50;;
58528;SDS011;44322;52.968;5.816;2023-09-19T15:01:40;7.82;;;2.30;;
58528;SDS011;44322;52.968;5.816;2023-09-19T15:04:06;7.32;;;2.20;;
58528;SDS011;44322;52.968;5.816;2023-09-19T15:06:32;7.35;;;2.83;;
58528;SDS011;44322;52.968;5.816;2023-09-19T15:08:57;7.78;;;2.72;;
58528;SDS011;44322;52.968;5.816;2023-09-19T15:11:23;8.05;;;2.50;;
58528;SDS011;44322;52.968;5.816;2023-09-19T15:13:50;8.68;;;2.67;;
58528;SDS011;44322;52.968;5.816;2023-09-19T15:16:17;9.20;;;2.88;;
58528;SDS011;44322;52.968;5.816;2023-09-19T15:18:44;7.50;;;2.80;;
58528;SDS011;44322;52.968;5.816;2023-09-19T15:21:18;10.80;;;3.33;;
58528;SDS011;44322;52.968;5.816;2023-09-19T15:23:53;8.40;;;2.83;;
58528;SDS011;44322;52.968;5.816;2023-09-19T15:26:19;9.73;;;2.80;;
58528;SDS011;44322;52.968;5.816;2023-09-19T15:28:46;8.33;;;3.07;;
58528;SDS011;44322;52.968;5.816;2023-09-19T15:31:16;9.63;;;3.20;;
58528;SDS011;44322;52.968;5.816;2023-09-19T15:33:42;8.93;;;3.05;;
58528;SDS011;44322;52.968;5.816;2023-09-19T15:36:13;8.55;;;3.17;;
58528;SDS011;44322;52.968;5.816;2023-09-19T15:44:21;10.13;;;3.53;;
58528;SDS011;44322;52.968;5.816;2023-09-19T15:46:47;8.88;;;3.15;;
58528;SDS011;44322;52.968;5.816;2023-09-19T16:18:36;10.40;;;3.83;;
58528;SDS011;44322;52.968;5.816;2023-09-19T16:21:07;10.95;;;4.15;;
58528;SDS011;44322;52.968;5.816;2023-09-19T16:23:33;7.35;;;3.47;;
58528;SDS011;44322;52.968;5.816;2023-09-19T16:26:37;10.05;;;3.83;;
58528;SDS011;44322;52.968;5.816;2023-09-19T16:29:03;9.00;;;3.85;;
58528;SDS011;44322;52.968;5.816;2023-09-19T16:31:29;11.90;;;3.58;;
58528;SDS011;44322;52.968;5.816;2023-09-19T16:33:56;7.72;;;3.78;;
58528;SDS011;44322;52.968;5.816;2023-09-19T16:36:28;11.95;;;3.92;;
58528;SDS011;44322;52.968;5.816;2023-09-19T16:38:54;10.90;;;3.83;;
58528;SDS011;44322;52.968;5.816;2023-09-19T16:41:23;10.27;;;3.85;;
58528;SDS011;44322;52.968;5.816;2023-09-19T16:46:39;7.55;;;4.10;;
58528;SDS011;44322;52.968;5.816;2023-09-19T16:49:08;10.35;;;4.18;;
58528;SDS011;44322;52.968;5.816;2023-09-19T16:51:34;8.77;;;3.90;;
58528;SDS011;44322;52.968;5.816;2023-09-19T16:54:00;9.65;;;4.15;;
58528;SDS011;44322;52.968;5.816;2023-09-19T16:56:26;11.77;;;4.40;;
58528;SDS011;44322;52.968;5.816;2023-09-19T16:58:53;10.43;;;3.63;;
58528;SDS011;44322;52.968;5.816;2023-09-19T17:01:19;11.60;;;4.78;;
58528;SDS011;44322;52.968;5.816;2023-09-19T17:03:47;12.65;;;4.85;;
58528;SDS011;44322;52.968;5.816;2023-09-19T17:14:29;11.80;;;4.63;;
58528;SDS011;44322;52.968;5.816;2023-09-19T17:21:52;10.30;;;4.15;;
58528;SDS011;44322;52.968;5.816;2023-09-19T17:31:56;11.55;;;4.60;;
58528;SDS011;44322;52.968;5.816;2023-09-19T17:34:22;10.32;;;4.50;;
58528;SDS011;44322;52.968;5.816;2023-09-19T17:36:48;11.80;;;4.65;;
58528;SDS011;44322;52.968;5.816;2023-09-19T17:39:13;12.02;;;4.97;;
58528;SDS011;44322;52.968;5.816;2023-09-19T17:41:40;10.73;;;4.93;;
58528;SDS011;44322;52.968;5.816;2023-09-19T17:44:06;14.45;;;6.03;;
58528;SDS011;44322;52.968;5.816;2023-09-19T17:46:32;9.95;;;5.05;;
58528;SDS011;44322;52.968;5.816;2023-09-19T17:49:00;11.63;;;4.95;;
58528;SDS011;44322;52.968;5.816;2023-09-19T17:51:25;8.85;;;4.53;;
58528;SDS011;44322;52.968;5.816;2023-09-19T17:53:54;11.15;;;4.20;;
58528;SDS011;44322;52.968;5.816;2023-09-19T17:56:24;10.95;;;4.93;;
58528;SDS011;44322;52.968;5.816;2023-09-19T17:58:50;10.45;;;4.60;;
58528;SDS011;44322;52.968;5.816;2023-09-19T18:01:22;10.48;;;4.38;;
58528;SDS011;44322;52.968;5.816;2023-09-19T18:03:51;12.40;;;4.93;;
58528;SDS011;44322;52.968;5.816;2023-09-19T18:06:21;10.27;;;4.35;;
58528;SDS011;44322;52.968;5.816;2023-09-19T18:08:48;12.63;;;4.68;;
58528;SDS011;44322;52.968;5.816;2023-09-19T18:11:14;11.02;;;4.43;;
58528;SDS011;44322;52.968;5.816;2023-09-19T18:13:57;12.27;;;4.25;;
58528;SDS011;44322;52.968;5.816;2023-09-19T18:16:48;13.93;;;4.90;;
58528;SDS011;44322;52.968;5.816;2023-09-19T18:19:19;10.90;;;4.50;;
58528;SDS011;44322;52.968;5.816;2023-09-19T18:23:02;10.38;;;4.63;;
58528;SDS011;44322;52.968;5.816;2023-09-19T18:25:31;9.95;;;4.22;;
58528;SDS011;44322;52.968;5.816;2023-09-19T18:28:49;11.63;;;4.88;;
58528;SDS011;44322;52.968;5.816;2023-09-19T18:38:48;9.43;;;4.47;;
58528;SDS011;44322;52.968;5.816;2023-09-19T18:45:00;11.25;;;5.15;;
58528;SDS011;44322;52.968;5.816;2023-09-19T18:47:34;12.40;;;4.72;;
58528;SDS011;44322;52.968;5.816;2023-09-19T18:50:43;10.43;;;4.97;;
58528;SDS011;44322;52.968;5.816;2023-09-19T18:53:15;10.98;;;4.80;;
58528;SDS011;44322;52.968;5.816;2023-09-19T18:56:02;10.75;;;5.22;;
58528;SDS011;44322;52.968;5.816;2023-09-19T18:58:57;9.30;;;4.88;;
58528;SDS011;44322;52.968;5.816;2023-09-19T19:01:49;10.73;;;4.47;;
58528;SDS011;44322;52.968;5.816;2023-09-19T19:04:18;12.20;;;4.85;;
58528;SDS011;44322;52.968;5.816;2023-09-19T19:06:58;9.18;;;4.57;;
58528;SDS011;44322;52.968;5.816;2023-09-19T19:09:29;10.77;;;4.57;;
58528;SDS011;44322;52.968;5.816;2023-09-19T19:12:05;12.25;;;5.07;;